sensor_id;sensor_type;location;lat;lon;timestamp;P1;durP1;ratioP1;P2;durP2;ratioP2
21987;SDS011;11158;53.404;-1.510;2024-02-15T00:01:33;8.05;;;5.28;;
21987;SDS011;11158;53.404;-1.510;2024-02-15T00:03:59;10.80;;;5.85;;
21987;SDS011;11158;53.404;-1.510;2024-02-15T00:06:24;8.00;;;5.22;;
21987;SDS011;11158;53.404;-1.510;2024-02-15T00:08:49;8.05;;;5.50;;
21987;SDS011;11158;53.404;-1.510;2024-02-15T00:11:17;6.80;;;5.10;;
21987;SDS011;11158;53.404;-1.510;2024-02-15T00:13:43;7.53;;;4.95;;
21987;SDS011;11158;53.404;-1.510;2024-02-15T00:16:08;12.27;;;4.78;;
21987;SDS011;11158;53.404;-1.510;2024-02-15T00:18:38;8.73;;;4.68;;
21987;SDS011;11158;53.404;-1.510;2024-02-15T00:21:04;11.25;;;4.55;;
21987;SDS011;11158;53.404;-1.510;2024-02-15T00:23:30;9.20;;;4.38;;
21987;SDS011;11158;53.404;-1.510;2024-02-15T00:25:57;8.70;;;4.68;;
21987;SDS011;11158;53.404;-1.510;2024-02-15T00:28:22;7.78;;;4.18;;
21987;SDS011;11158;53.404;-1.510;2024-02-15T00:30:49;9.35;;;4.28;;
21987;SDS011;11158;53.404;-1.510;2024-02-15T00:33:14;9.35;;;4.45;;
21987;SDS011;11158;53.404;-1.510;2024-02-15T00:35:40;7.15;;;3.92;;
21987;SDS011;11158;53.404;-1.510;2024-02-15T00:38:05;8.43;;;4.28;;
21987;SDS011;11158;53.404;-1.510;2024-02-15T00:40:32;8.95;;;3.55;;
21987;SDS011;11158;53.404;-1.510;2024-02-15T00:42:57;4.95;;;3.03;;
21987;SDS011;11158;53.404;-1.510;2024-02-15T00:45:23;7.85;;;3.55;;
21987;SDS011;11158;53.404;-1.510;2024-02-15T00:47:48;7.97;;;3.10;;
21987;SDS011;11158;53.404;-1.510;2024-02-15T00:50:14;6.03;;;3.13;;
21987;SDS011;11158;53.404;-1.510;2024-02-15T00:52:39;8.48;;;3.70;;
21987;SDS011;11158;53.404;-1.510;2024-02-15T00:55:05;3.72;;;2.70;;
21987;SDS011;11158;53.404;-1.510;2024-02-15T00:57:31;7.18;;;3.30;;
21987;SDS011;11158;53.404;-1.510;2024-02-15T00:59:56;4.63;;;3.00;;
21987;SDS011;11158;53.404;-1.510;2024-02-15T01:02:22;9.20;;;3.30;;
21987;SDS011;11158;53.404;-1.510;2024-02-15T01:04:51;8.48;;;3.35;;
21987;SDS011;11158;53.404;-1.510;2024-02-15T01:07:18;7.60;;;3.53;;
21987;SDS011;11158;53.404;-1.510;2024-02-15T01:09:43;6.63;;;3.65;;
21987;SDS011;11158;53.404;-1.510;2024-02-15T01:12:10;12.45;;;3.63;;
21987;SDS011;11158;53.404;-1.510;2024-02-15T01:14:35;8.55;;;3.90;;
21987;SDS011;11158;53.404;-1.510;2024-02-15T01:17:01;6.38;;;4.18;;
21987;SDS011;11158;53.404;-1.510;2024-02-15T01:19:27;11.75;;;3.53;;
21987;SDS011;11158;53.404;-1.510;2024-02-15T01:21:52;6.30;;;3.10;;
21987;SDS011;11158;53.404;-1.510;2024-02-15T01:24:18;5.13;;;3.22;;
21987;SDS011;11158;53.404;-1.510;2024-02-15T01:26:44;7.68;;;3.90;;
21987;SDS011;11158;53.404;-1.510;2024-02-15T01:29:09;7.25;;;3.53;;
21987;SDS011;11158;53.404;-1.510;2024-02-15T01:31:37;7.90;;;3.42;;
21987;SDS011;11158;53.404;-1.510;2024-02-15T01:34:03;11.30;;;3.72;;
21987;SDS011;11158;53.404;-1.510;2024-02-15T01:36:29;8.10;;;4.32;;
21987;SDS011;11158;53.404;-1.510;2024-02-15T01:38:54;7.70;;;4.40;;
21987;SDS011;11158;53.404;-1.510;2024-02-15T01:41:20;8.10;;;4.63;;
21987;SDS011;11158;53.404;-1.510;2024-02-15T01:43:45;6.38;;;4.50;;
21987;SDS011;11158;53.404;-1.510;2024-02-15T01:46:11;8.98;;;4.45;;
21987;SDS011;11158;53.404;-1.510;2024-02-15T01:48:37;7.22;;;4.60;;
21987;SDS011;11158;53.404;-1.510;2024-02-15T01:51:04;9.48;;;5.00;;
21987;SDS011;11158;53.404;-1.510;2024-02-15T01:53:31;9.43;;;5.18;;
21987;SDS011;11158;53.404;-1.510;2024-02-15T01:55:57;10.20;;;6.00;;
21987;SDS011;11158;53.404;-1.510;2024-02-15T01:58:25;9.32;;;5.40;;
21987;SDS011;11158;53.404;-1.510;2024-02-15T02:00:52;11.95;;;6.20;;
21987;SDS011;11158;53.404;-1.510;2024-02-15T02:03:18;9.80;;;5.88;;
21987;SDS011;11158;53.404;-1.510;2024-02-15T02:05:46;12.68;;;7.10;;
21987;SDS011;11158;53.404;-1.510;2024-02-15T02:08:11;10.75;;;6.82;;
21987;SDS011;11158;53.404;-1.510;2024-02-15T02:10:37;11.60;;;7.53;;
21987;SDS011;11158;53.404;-1.510;2024-02-15T02:13:03;12.40;;;7.40;;
21987;SDS011;11158;53.404;-1.510;2024-02-15T02:15:29;11.48;;;7.30;;
21987;SDS011;11158;53.404;-1.510;2024-02-15T02:17:56;15.07;;;7.47;;
21987;SDS011;11158;53.404;-1.510;2024-02-15T02:20:24;12.23;;;7.50;;
21987;SDS011;11158;53.404;-1.510;2024-02-15T02:22:50;15.73;;;7.97;;
21987;SDS011;11158;53.404;-1.510;2024-02-15T02:25:20;12.80;;;7.90;;
21987;SDS011;11158;53.404;-1.510;2024-02-15T02:27:46;12.10;;;6.72;;
21987;SDS011;11158;53.404;-1.510;2024-02-15T02:30:14;11.65;;;6.88;;
21987;SDS011;11158;53.404;-1.510;2024-02-15T02:32:42;11.30;;;6.90;;
21987;SDS011;11158;53.404;-1.510;2024-02-15T02:35:08;12.18;;;6.78;;
21987;SDS011;11158;53.404;-1.510;2024-02-15T02:37:37;12.45;;;6.28;;
21987;SDS011;11158;53.404;-1.510;2024-02-15T02:40:03;11.63;;;6.55;;
21987;SDS011;11158;53.404;-1.510;2024-02-15T02:42:30;9.65;;;5.53;;
21987;SDS011;11158;53.404;-1.510;2024-02-15T02:44:55;9.00;;;5.80;;
21987;SDS011;11158;53.404;-1.510;2024-02-15T02:47:20;10.48;;;5.43;;
21987;SDS011;11158;53.404;-1.510;2024-02-15T02:49:46;7.95;;;5.93;;
21987;SDS011;11158;53.404;-1.510;2024-02-15T02:52:12;7.95;;;5.00;;
21987;SDS011;11158;53.404;-1.510;2024-02-15T02:54:37;9.48;;;5.40;;
21987;SDS011;11158;53.404;-1.510;2024-02-15T02:57:03;7.45;;;5.18;;
21987;SDS011;11158;53.404;-1.510;2024-02-15T02:59:32;7.05;;;4.68;;
21987;SDS011;11158;53.404;-1.510;2024-02-15T03:01:59;7.15;;;4.97;;
21987;SDS011;11158;53.404;-1.510;2024-02-15T03:04:25;7.50;;;5.00;;
21987;SDS011;11158;53.404;-1.510;2024-02-15T03:06:50;7.38;;;4.50;;
21987;SDS011;11158;53.404;-1.510;2024-02-15T03:09:16;8.45;;;4.82;;
21987;SDS011;11158;53.404;-1.510;2024-02-15T03:11:42;5.47;;;3.95;;
21987;SDS011;11158;53.404;-1.510;2024-02-15T03:14:07;6.50;;;4.15;;
21987;SDS011;11158;53.404;-1.510;2024-02-15T03:16:33;9.60;;;4.85;;
21987;SDS011;11158;53.404;-1.510;2024-02-15T03:19:01;9.80;;;4.90;;
21987;SDS011;11158;53.404;-1.510;2024-02-15T03:21:29;8.40;;;4.75;;
21987;SDS011;11158;53.404;-1.510;2024-02-15T03:23:55;8.95;;;5.07;;
21987;SDS011;11158;53.404;-1.510;2024-02-15T03:26:30;8.80;;;4.90;;
21987;SDS011;11158;53.404;-1.510;2024-02-15T03:29:06;9.52;;;5.43;;
21987;SDS011;11158;53.404;-1.510;2024-02-15T03:31:35;9.38;;;5.43;;
21987;SDS011;11158;53.404;-1.510;2024-02-15T03:34:02;7.85;;;4.88;;
21987;SDS011;11158;53.404;-1.510;2024-02-15T03:36:28;10.55;;;5.45;;
21987;SDS011;11158;53.404;-1.510;2024-02-15T03:38:54;10.50;;;5.82;;
21987;SDS011;11158;53.404;-1.510;2024-02-15T03:41:20;9.75;;;5.20;;
21987;SDS011;11158;53.404;-1.510;2024-02-15T03:43:45;8.35;;;5.72;;
21987;SDS011;11158;53.404;-1.510;2024-02-15T03:46:12;7.72;;;5.20;;
21987;SDS011;11158;53.404;-1.510;2024-02-15T03:48:40;9.20;;;5.05;;
21987;SDS011;11158;53.404;-1.510;2024-02-15T03:51:08;8.88;;;6.28;;
21987;SDS011;11158;53.404;-1.510;2024-02-15T03:53:34;9.20;;;5.53;;
21987;SDS011;11158;53.404;-1.510;2024-02-15T03:56:02;10.68;;;7.00;;
21987;SDS011;11158;53.404;-1.510;2024-02-15T03:58:28;10.15;;;6.38;;
21987;SDS011;11158;53.404;-1.510;2024-02-15T04:00:55;9.77;;;5.70;;
21987;SDS011;11158;53.404;-1.510;2024-02-15T04:03:22;8.45;;;5.50;;
21987;SDS011;11158;53.404;-1.510;2024-02-15T04:05:47;11.75;;;6.72;;
21987;SDS011;11158;53.404;-1.510;2024-02-15T04:08:13;13.13;;;6.82;;
21987;SDS011;11158;53.404;-1.510;2024-02-15T04:10:40;9.65;;;6.50;;
21987;SDS011;11158;53.404;-1.510;2024-02-15T04:13:06;12.25;;;6.25;;
21987;SDS011;11158;53.404;-1.510;2024-02-15T04:15:32;10.10;;;6.10;;
21987;SDS011;11158;53.404;-1.510;2024-02-15T04:17:58;10.38;;;4.97;;
21987;SDS011;11158;53.404;-1.510;2024-02-15T04:20:24;12.45;;;4.40;;
21987;SDS011;11158;53.404;-1.510;2024-02-15T04:22:51;6.72;;;3.63;;
21987;SDS011;11158;53.404;-1.510;2024-02-15T04:25:17;4.40;;;3.30;;
21987;SDS011;11158;53.404;-1.510;2024-02-15T04:27:45;6.40;;;4.20;;
21987;SDS011;11158;53.404;-1.510;2024-02-15T04:30:12;6.68;;;3.92;;
21987;SDS011;11158;53.404;-1.510;2024-02-15T04:32:38;7.35;;;3.80;;
21987;SDS011;11158;53.404;-1.510;2024-02-15T04:35:04;6.13;;;3.72;;
21987;SDS011;11158;53.404;-1.510;2024-02-15T04:37:30;5.70;;;3.55;;
21987;SDS011;11158;53.404;-1.510;2024-02-15T04:39:57;9.23;;;4.38;;
21987;SDS011;11158;53.404;-1.510;2024-02-15T04:42:24;5.53;;;4.00;;
21987;SDS011;11158;53.404;-1.510;2024-02-15T04:44:51;8.48;;;3.67;;
21987;SDS011;11158;53.404;-1.510;2024-02-15T04:47:19;6.25;;;4.05;;
21987;SDS011;11158;53.404;-1.510;2024-02-15T04:49:45;8.75;;;3.88;;
21987;SDS011;11158;53.404;-1.510;2024-02-15T04:52:10;9.57;;;4.60;;
21987;SDS011;11158;53.404;-1.510;2024-02-15T04:54:36;8.05;;;4.47;;
21987;SDS011;11158;53.404;-1.510;2024-02-15T04:57:01;9.10;;;4.80;;
21987;SDS011;11158;53.404;-1.510;2024-02-15T04:59:27;8.68;;;5.30;;
21987;SDS011;11158;53.404;-1.510;2024-02-15T05:01:54;9.95;;;5.10;;
21987;SDS011;11158;53.404;-1.510;2024-02-15T05:04:19;9.55;;;5.25;;
21987;SDS011;11158;53.404;-1.510;2024-02-15T05:06:45;9.07;;;5.22;;
21987;SDS011;11158;53.404;-1.510;2024-02-15T05:09:11;8.13;;;4.70;;
21987;SDS011;11158;53.404;-1.510;2024-02-15T05:11:37;8.13;;;5.07;;
21987;SDS011;11158;53.404;-1.510;2024-02-15T05:14:13;9.43;;;4.95;;
21987;SDS011;11158;53.404;-1.510;2024-02-15T05:16:44;8.45;;;4.57;;
21987;SDS011;11158;53.404;-1.510;2024-02-15T05:19:15;10.90;;;5.55;;
21987;SDS011;11158;53.404;-1.510;2024-02-15T05:21:41;7.57;;;4.95;;
21987;SDS011;11158;53.404;-1.510;2024-02-15T05:24:10;9.65;;;5.72;;
21987;SDS011;11158;53.404;-1.510;2024-02-15T05:26:39;7.50;;;5.22;;
21987;SDS011;11158;53.404;-1.510;2024-02-15T05:29:07;11.32;;;5.53;;
21987;SDS011;11158;53.404;-1.510;2024-02-15T05:31:34;8.98;;;5.32;;
21987;SDS011;11158;53.404;-1.510;2024-02-15T05:34:02;10.60;;;6.00;;
21987;SDS011;11158;53.404;-1.510;2024-02-15T05:36:28;10.23;;;6.20;;
21987;SDS011;11158;53.404;-1.510;2024-02-15T05:38:55;11.48;;;6.72;;
21987;SDS011;11158;53.404;-1.510;2024-02-15T05:41:21;11.13;;;6.93;;
21987;SDS011;11158;53.404;-1.510;2024-02-15T05:43:46;15.45;;;7.50;;
21987;SDS011;11158;53.404;-1.510;2024-02-15T05:46:18;13.45;;;7.32;;
21987;SDS011;11158;53.404;-1.510;2024-02-15T05:48:46;12.45;;;6.93;;
21987;SDS011;11158;53.404;-1.510;2024-02-15T05:51:12;10.02;;;6.25;;
21987;SDS011;11158;53.404;-1.510;2024-02-15T05:53:37;10.95;;;6.57;;
21987;SDS011;11158;53.404;-1.510;2024-02-15T05:56:04;10.60;;;6.07;;
21987;SDS011;11158;53.404;-1.510;2024-02-15T05:58:31;10.63;;;6.53;;
21987;SDS011;11158;53.404;-1.510;2024-02-15T06:00:57;13.15;;;6.93;;
21987;SDS011;11158;53.404;-1.510;2024-02-15T06:03:30;12.48;;;7.50;;
21987;SDS011;11158;53.404;-1.510;2024-02-15T06:06:00;16.00;;;8.05;;
21987;SDS011;11158;53.404;-1.510;2024-02-15T06:08:31;14.13;;;7.03;;
21987;SDS011;11158;53.404;-1.510;2024-02-15T06:10:57;14.80;;;7.85;;
21987;SDS011;11158;53.404;-1.510;2024-02-15T06:13:24;14.70;;;7.53;;
21987;SDS011;11158;53.404;-1.510;2024-02-15T06:15:51;10.15;;;6.57;;
21987;SDS011;11158;53.404;-1.510;2024-02-15T06:18:29;14.52;;;6.88;;
21987;SDS011;11158;53.404;-1.510;2024-02-15T06:20:57;13.77;;;7.00;;
21987;SDS011;11158;53.404;-1.510;2024-02-15T06:23:24;8.20;;;5.43;;
21987;SDS011;11158;53.404;-1.510;2024-02-15T06:25:51;11.48;;;6.72;;
21987;SDS011;11158;53.404;-1.510;2024-02-15T06:28:19;9.55;;;5.90;;
21987;SDS011;11158;53.404;-1.510;2024-02-15T06:31:05;10.10;;;5.82;;
21987;SDS011;11158;53.404;-1.510;2024-02-15T06:33:49;9.23;;;5.40;;
21987;SDS011;11158;53.404;-1.510;2024-02-15T06:36:33;12.20;;;5.90;;
21987;SDS011;11158;53.404;-1.510;2024-02-15T06:39:17;8.20;;;5.38;;
21987;SDS011;11158;53.404;-1.510;2024-02-15T06:42:01;9.43;;;5.30;;
21987;SDS011;11158;53.404;-1.510;2024-02-15T06:44:27;11.88;;;6.95;;
21987;SDS011;11158;53.404;-1.510;2024-02-15T06:46:53;9.45;;;5.60;;
21987;SDS011;11158;53.404;-1.510;2024-02-15T06:49:18;8.27;;;5.30;;
21987;SDS011;11158;53.404;-1.510;2024-02-15T06:51:46;8.52;;;5.03;;
21987;SDS011;11158;53.404;-1.510;2024-02-15T06:54:12;7.63;;;4.63;;
21987;SDS011;11158;53.404;-1.510;2024-02-15T06:56:38;9.43;;;5.43;;
21987;SDS011;11158;53.404;-1.510;2024-02-15T06:59:04;9.07;;;5.35;;
21987;SDS011;11158;53.404;-1.510;2024-02-15T07:01:33;9.35;;;5.50;;
21987;SDS011;11158;53.404;-1.510;2024-02-15T07:03:59;9.70;;;5.65;;
21987;SDS011;11158;53.404;-1.510;2024-02-15T07:06:25;10.60;;;5.70;;
21987;SDS011;11158;53.404;-1.510;2024-02-15T07:08:52;8.60;;;5.13;;
21987;SDS011;11158;53.404;-1.510;2024-02-15T07:11:20;7.72;;;5.20;;
21987;SDS011;11158;53.404;-1.510;2024-02-15T07:13:46;10.70;;;6.03;;
21987;SDS011;11158;53.404;-1.510;2024-02-15T07:16:12;8.18;;;5.45;;
21987;SDS011;11158;53.404;-1.510;2024-02-15T07:18:38;10.73;;;5.20;;
21987;SDS011;11158;53.404;-1.510;2024-02-15T07:21:04;6.38;;;5.00;;
21987;SDS011;11158;53.404;-1.510;2024-02-15T07:23:36;8.98;;;5.55;;
21987;SDS011;11158;53.404;-1.510;2024-02-15T07:26:01;6.72;;;4.97;;
21987;SDS011;11158;53.404;-1.510;2024-02-15T07:28:28;6.80;;;4.90;;
21987;SDS011;11158;53.404;-1.510;2024-02-15T07:30:56;8.57;;;4.55;;
21987;SDS011;11158;53.404;-1.510;2024-02-15T07:33:21;8.30;;;5.05;;
21987;SDS011;11158;53.404;-1.510;2024-02-15T07:35:48;5.57;;;4.10;;
21987;SDS011;11158;53.404;-1.510;2024-02-15T07:38:17;7.18;;;4.68;;
21987;SDS011;11158;53.404;-1.510;2024-02-15T07:40:42;7.07;;;4.03;;
21987;SDS011;11158;53.404;-1.510;2024-02-15T07:43:08;6.63;;;4.13;;
21987;SDS011;11158;53.404;-1.510;2024-02-15T07:45:35;6.05;;;4.65;;
21987;SDS011;11158;53.404;-1.510;2024-02-15T07:48:02;6.50;;;4.10;;
21987;SDS011;11158;53.404;-1.510;2024-02-15T07:50:29;6.18;;;3.63;;
21987;SDS011;11158;53.404;-1.510;2024-02-15T07:52:55;5.65;;;4.22;;
21987;SDS011;11158;53.404;-1.510;2024-02-15T07:55:21;5.53;;;3.72;;
21987;SDS011;11158;53.404;-1.510;2024-02-15T07:57:49;4.40;;;3.50;;
21987;SDS011;11158;53.404;-1.510;2024-02-15T08:00:15;5.35;;;3.35;;
21987;SDS011;11158;53.404;-1.510;2024-02-15T08:02:42;4.30;;;3.78;;
21987;SDS011;11158;53.404;-1.510;2024-02-15T08:07:40;6.70;;;3.83;;
21987;SDS011;11158;53.404;-1.510;2024-02-15T08:10:07;5.00;;;3.72;;
21987;SDS011;11158;53.404;-1.510;2024-02-15T08:12:42;6.28;;;3.58;;
21987;SDS011;11158;53.404;-1.510;2024-02-15T08:15:09;4.30;;;3.05;;
21987;SDS011;11158;53.404;-1.510;2024-02-15T08:17:37;6.95;;;3.50;;
21987;SDS011;11158;53.404;-1.510;2024-02-15T08:20:15;4.28;;;3.47;;
21987;SDS011;11158;53.404;-1.510;2024-02-15T08:22:46;5.38;;;2.80;;
21987;SDS011;11158;53.404;-1.510;2024-02-15T08:25:12;6.82;;;3.47;;
21987;SDS011;11158;53.404;-1.510;2024-02-15T08:27:40;6.50;;;3.83;;
21987;SDS011;11158;53.404;-1.510;2024-02-15T08:30:10;9.45;;;4.03;;
21987;SDS011;11158;53.404;-1.510;2024-02-15T08:32:38;5.35;;;3.47;;
21987;SDS011;11158;53.404;-1.510;2024-02-15T08:35:05;4.57;;;3.65;;
21987;SDS011;11158;53.404;-1.510;2024-02-15T08:37:31;5.75;;;3.55;;
21987;SDS011;11158;53.404;-1.510;2024-02-15T08:40:00;6.80;;;3.58;;
21987;SDS011;11158;53.404;-1.510;2024-02-15T08:42:25;4.53;;;3.28;;
21987;SDS011;11158;53.404;-1.510;2024-02-15T08:44:51;6.35;;;4.18;;
21987;SDS011;11158;53.404;-1.510;2024-02-15T08:47:17;5.07;;;3.17;;
21987;SDS011;11158;53.404;-1.510;2024-02-15T08:49:42;6.25;;;3.80;;
21987;SDS011;11158;53.404;-1.510;2024-02-15T08:52:08;5.80;;;3.42;;
21987;SDS011;11158;53.404;-1.510;2024-02-15T08:54:33;5.70;;;3.72;;
21987;SDS011;11158;53.404;-1.510;2024-02-15T08:57:00;7.03;;;3.40;;
21987;SDS011;11158;53.404;-1.510;2024-02-15T08:59:26;5.60;;;3.60;;
21987;SDS011;11158;53.404;-1.510;2024-02-15T09:01:55;6.53;;;4.40;;
21987;SDS011;11158;53.404;-1.510;2024-02-15T09:04:22;6.18;;;4.05;;
21987;SDS011;11158;53.404;-1.510;2024-02-15T09:06:49;6.53;;;3.28;;
21987;SDS011;11158;53.404;-1.510;2024-02-15T09:09:16;7.38;;;3.95;;
21987;SDS011;11158;53.404;-1.510;2024-02-15T09:11:42;6.32;;;4.43;;
21987;SDS011;11158;53.404;-1.510;2024-02-15T09:14:07;7.85;;;4.28;;
21987;SDS011;11158;53.404;-1.510;2024-02-15T09:16:38;6.30;;;4.07;;
21987;SDS011;11158;53.404;-1.510;2024-02-15T09:19:04;7.32;;;4.15;;
21987;SDS011;11158;53.404;-1.510;2024-02-15T09:21:31;7.63;;;4.07;;
21987;SDS011;11158;53.404;-1.510;2024-02-15T09:23:58;8.60;;;4.28;;
21987;SDS011;11158;53.404;-1.510;2024-02-15T09:26:24;8.40;;;4.10;;
21987;SDS011;11158;53.404;-1.510;2024-02-15T09:28:49;7.25;;;4.70;;
21987;SDS011;11158;53.404;-1.510;2024-02-15T09:31:15;6.60;;;3.60;;
21987;SDS011;11158;53.404;-1.510;2024-02-15T09:33:40;4.45;;;3.03;;
21987;SDS011;11158;53.404;-1.510;2024-02-15T09:36:06;6.25;;;3.83;;
21987;SDS011;11158;53.404;-1.510;2024-02-15T09:38:31;5.03;;;3.30;;
21987;SDS011;11158;53.404;-1.510;2024-02-15T09:40:57;5.32;;;2.97;;
21987;SDS011;11158;53.404;-1.510;2024-02-15T09:43:22;3.80;;;2.83;;
21987;SDS011;11158;53.404;-1.510;2024-02-15T09:45:54;6.20;;;2.90;;
21987;SDS011;11158;53.404;-1.510;2024-02-15T09:48:19;4.15;;;2.80;;
21987;SDS011;11158;53.404;-1.510;2024-02-15T09:50:49;5.97;;;3.00;;
21987;SDS011;11158;53.404;-1.510;2024-02-15T09:53:20;8.82;;;3.30;;
21987;SDS011;11158;53.404;-1.510;2024-02-15T09:55:47;4.53;;;3.00;;
21987;SDS011;11158;53.404;-1.510;2024-02-15T09:58:13;6.70;;;2.92;;
21987;SDS011;11158;53.404;-1.510;2024-02-15T10:00:40;6.15;;;2.88;;
21987;SDS011;11158;53.404;-1.510;2024-02-15T10:03:05;7.47;;;2.60;;
21987;SDS011;11158;53.404;-1.510;2024-02-15T10:05:32;7.20;;;2.72;;
21987;SDS011;11158;53.404;-1.510;2024-02-15T10:07:57;6.60;;;2.97;;
21987;SDS011;11158;53.404;-1.510;2024-02-15T10:10:25;7.78;;;2.83;;
21987;SDS011;11158;53.404;-1.510;2024-02-15T10:12:52;5.45;;;2.80;;
21987;SDS011;11158;53.404;-1.510;2024-02-15T10:17:57;5.90;;;2.65;;
21987;SDS011;11158;53.404;-1.510;2024-02-15T10:20:24;7.45;;;3.35;;
21987;SDS011;11158;53.404;-1.510;2024-02-15T10:23:08;13.35;;;3.45;;
21987;SDS011;11158;53.404;-1.510;2024-02-15T10:25:35;7.95;;;2.80;;
21987;SDS011;11158;53.404;-1.510;2024-02-15T10:28:02;8.15;;;2.70;;
21987;SDS011;11158;53.404;-1.510;2024-02-15T10:30:30;6.18;;;2.42;;
21987;SDS011;11158;53.404;-1.510;2024-02-15T10:32:57;4.85;;;2.38;;
21987;SDS011;11158;53.404;-1.510;2024-02-15T10:35:23;8.13;;;2.58;;
21987;SDS011;11158;53.404;-1.510;2024-02-15T10:37:49;8.20;;;2.53;;
21987;SDS011;11158;53.404;-1.510;2024-02-15T10:42:50;2.72;;;1.83;;
21987;SDS011;11158;53.404;-1.510;2024-02-15T10:45:17;4.22;;;1.77;;
21987;SDS011;11158;53.404;-1.510;2024-02-15T10:47:46;6.68;;;2.00;;
21987;SDS011;11158;53.404;-1.510;2024-02-15T10:50:14;4.35;;;2.03;;
21987;SDS011;11158;53.404;-1.510;2024-02-15T10:52:53;7.38;;;2.30;;
21987;SDS011;11158;53.404;-1.510;2024-02-15T10:55:37;5.15;;;1.88;;
21987;SDS011;11158;53.404;-1.510;2024-02-15T10:58:05;6.97;;;1.90;;
21987;SDS011;11158;53.404;-1.510;2024-02-15T11:00:32;6.88;;;2.03;;
21987;SDS011;11158;53.404;-1.510;2024-02-15T11:03:03;6.28;;;2.20;;
21987;SDS011;11158;53.404;-1.510;2024-02-15T11:05:36;7.15;;;2.55;;
21987;SDS011;11158;53.404;-1.510;2024-02-15T11:08:06;7.60;;;1.90;;
21987;SDS011;11158;53.404;-1.510;2024-02-15T11:10:36;6.53;;;2.00;;
21987;SDS011;11158;53.404;-1.510;2024-02-15T11:13:02;9.18;;;1.80;;
21987;SDS011;11158;53.404;-1.510;2024-02-15T11:18:00;8.68;;;1.92;;
21987;SDS011;11158;53.404;-1.510;2024-02-15T11:20:47;6.35;;;2.10;;
21987;SDS011;11158;53.404;-1.510;2024-02-15T11:23:13;2.80;;;1.27;;
21987;SDS011;11158;53.404;-1.510;2024-02-15T11:25:49;4.30;;;1.48;;
21987;SDS011;11158;53.404;-1.510;2024-02-15T11:30:46;4.32;;;1.83;;
21987;SDS011;11158;53.404;-1.510;2024-02-15T11:36:07;4.75;;;1.88;;
21987;SDS011;11158;53.404;-1.510;2024-02-15T11:38:34;3.22;;;1.60;;
21987;SDS011;11158;53.404;-1.510;2024-02-15T11:41:03;4.22;;;1.58;;
21987;SDS011;11158;53.404;-1.510;2024-02-15T11:46:13;6.22;;;1.52;;
21987;SDS011;11158;53.404;-1.510;2024-02-15T11:48:40;4.10;;;1.40;;
21987;SDS011;11158;53.404;-1.510;2024-02-15T11:51:09;7.10;;;1.58;;
21987;SDS011;11158;53.404;-1.510;2024-02-15T11:53:36;6.97;;;1.55;;
21987;SDS011;11158;53.404;-1.510;2024-02-15T11:56:02;4.65;;;1.30;;
21987;SDS011;11158;53.404;-1.510;2024-02-15T11:58:30;3.45;;;1.55;;
21987;SDS011;11158;53.404;-1.510;2024-02-15T12:01:08;5.57;;;1.30;;
21987;SDS011;11158;53.404;-1.510;2024-02-15T12:03:53;3.95;;;1.45;;
21987;SDS011;11158;53.404;-1.510;2024-02-15T12:06:38;5.60;;;1.55;;
21987;SDS011;11158;53.404;-1.510;2024-02-15T12:09:22;6.40;;;1.38;;
21987;SDS011;11158;53.404;-1.510;2024-02-15T12:12:06;5.60;;;1.75;;
21987;SDS011;11158;53.404;-1.510;2024-02-15T12:14:50;4.45;;;1.30;;
21987;SDS011;11158;53.404;-1.510;2024-02-15T12:17:41;6.00;;;1.58;;
21987;SDS011;11158;53.404;-1.510;2024-02-15T12:20:25;6.85;;;1.65;;
21987;SDS011;11158;53.404;-1.510;2024-02-15T12:22:51;8.73;;;1.17;;
21987;SDS011;11158;53.404;-1.510;2024-02-15T12:25:17;3.85;;;1.10;;
21987;SDS011;11158;53.404;-1.510;2024-02-15T12:27:46;4.05;;;1.08;;
21987;SDS011;11158;53.404;-1.510;2024-02-15T12:30:17;2.90;;;1.05;;
21987;SDS011;11158;53.404;-1.510;2024-02-15T12:32:46;5.18;;;1.67;;
21987;SDS011;11158;53.404;-1.510;2024-02-15T12:40:29;3.22;;;1.23;;
21987;SDS011;11158;53.404;-1.510;2024-02-15T12:42:59;5.50;;;1.25;;
21987;SDS011;11158;53.404;-1.510;2024-02-15T12:45:25;3.72;;;1.42;;
21987;SDS011;11158;53.404;-1.510;2024-02-15T12:47:53;2.58;;;1.10;;
21987;SDS011;11158;53.404;-1.510;2024-02-15T12:50:20;3.50;;;1.45;;
21987;SDS011;11158;53.404;-1.510;2024-02-15T12:52:49;7.75;;;1.20;;
21987;SDS011;11158;53.404;-1.510;2024-02-15T12:55:18;6.47;;;1.10;;
21987;SDS011;11158;53.404;-1.510;2024-02-15T12:57:47;5.10;;;1.20;;
21987;SDS011;11158;53.404;-1.510;2024-02-15T13:00:17;4.00;;;1.10;;
21987;SDS011;11158;53.404;-1.510;2024-02-15T13:02:47;6.85;;;1.20;;
21987;SDS011;11158;53.404;-1.510;2024-02-15T13:05:14;3.40;;;1.10;;
21987;SDS011;11158;53.404;-1.510;2024-02-15T13:07:40;4.40;;;1.10;;
21987;SDS011;11158;53.404;-1.510;2024-02-15T13:10:06;4.50;;;1.20;;
21987;SDS011;11158;53.404;-1.510;2024-02-15T13:12:35;5.80;;;1.23;;
21987;SDS011;11158;53.404;-1.510;2024-02-15T13:15:04;2.25;;;1.08;;
21987;SDS011;11158;53.404;-1.510;2024-02-15T13:17:37;6.95;;;1.13;;
21987;SDS011;11158;53.404;-1.510;2024-02-15T13:20:03;4.93;;;1.10;;
21987;SDS011;11158;53.404;-1.510;2024-02-15T13:22:30;3.92;;;1.15;;
21987;SDS011;11158;53.404;-1.510;2024-02-15T13:24:56;9.30;;;1.38;;
21987;SDS011;11158;53.404;-1.510;2024-02-15T13:27:22;6.03;;;1.10;;
21987;SDS011;11158;53.404;-1.510;2024-02-15T13:29:49;3.70;;;1.08;;
21987;SDS011;11158;53.404;-1.510;2024-02-15T13:32:15;6.05;;;1.52;;
21987;SDS011;11158;53.404;-1.510;2024-02-15T13:34:42;7.38;;;1.10;;
21987;SDS011;11158;53.404;-1.510;2024-02-15T13:37:08;4.60;;;1.17;;
21987;SDS011;11158;53.404;-1.510;2024-02-15T13:39:33;7.18;;;1.40;;
21987;SDS011;11158;53.404;-1.510;2024-02-15T13:42:01;5.40;;;1.25;;
21987;SDS011;11158;53.404;-1.510;2024-02-15T13:44:27;2.50;;;0.73;;
21987;SDS011;11158;53.404;-1.510;2024-02-15T13:46:55;4.57;;;0.90;;
21987;SDS011;11158;53.404;-1.510;2024-02-15T13:49:22;2.35;;;0.90;;
21987;SDS011;11158;53.404;-1.510;2024-02-15T13:51:47;5.15;;;0.85;;
21987;SDS011;11158;53.404;-1.510;2024-02-15T13:54:14;6.63;;;1.17;;
21987;SDS011;11158;53.404;-1.510;2024-02-15T13:56:39;3.20;;;0.75;;
21987;SDS011;11158;53.404;-1.510;2024-02-15T13:59:05;6.55;;;1.05;;
21987;SDS011;11158;53.404;-1.510;2024-02-15T14:01:31;2.88;;;0.60;;
21987;SDS011;11158;53.404;-1.510;2024-02-15T14:03:56;5.72;;;1.30;;
21987;SDS011;11158;53.404;-1.510;2024-02-15T14:06:22;4.03;;;1.20;;
21987;SDS011;11158;53.404;-1.510;2024-02-15T14:08:48;2.33;;;0.80;;
21987;SDS011;11158;53.404;-1.510;2024-02-15T14:11:15;3.65;;;0.95;;
21987;SDS011;11158;53.404;-1.510;2024-02-15T14:13:42;2.85;;;1.10;;
21987;SDS011;11158;53.404;-1.510;2024-02-15T14:16:08;4.80;;;1.08;;
21987;SDS011;11158;53.404;-1.510;2024-02-15T14:18:33;4.70;;;0.98;;
21987;SDS011;11158;53.404;-1.510;2024-02-15T14:21:00;3.60;;;0.93;;
21987;SDS011;11158;53.404;-1.510;2024-02-15T14:23:25;2.22;;;0.65;;
21987;SDS011;11158;53.404;-1.510;2024-02-15T14:25:52;4.68;;;1.05;;
21987;SDS011;11158;53.404;-1.510;2024-02-15T14:28:18;2.22;;;0.80;;
21987;SDS011;11158;53.404;-1.510;2024-02-15T14:30:43;4.00;;;0.80;;
21987;SDS011;11158;53.404;-1.510;2024-02-15T14:33:27;1.90;;;0.65;;
21987;SDS011;11158;53.404;-1.510;2024-02-15T14:35:54;7.25;;;0.98;;
21987;SDS011;11158;53.404;-1.510;2024-02-15T14:38:20;3.58;;;0.93;;
21987;SDS011;11158;53.404;-1.510;2024-02-15T14:40:48;3.65;;;0.90;;
21987;SDS011;11158;53.404;-1.510;2024-02-15T14:43:25;5.72;;;0.90;;
21987;SDS011;11158;53.404;-1.510;2024-02-15T14:45:51;3.13;;;1.00;;
21987;SDS011;11158;53.404;-1.510;2024-02-15T14:48:18;7.03;;;1.20;;
21987;SDS011;11158;53.404;-1.510;2024-02-15T14:50:45;3.83;;;1.00;;
21987;SDS011;11158;53.404;-1.510;2024-02-15T14:53:15;3.28;;;0.93;;
21987;SDS011;11158;53.404;-1.510;2024-02-15T14:55:43;3.53;;;0.90;;
21987;SDS011;11158;53.404;-1.510;2024-02-15T14:58:14;4.82;;;1.10;;
21987;SDS011;11158;53.404;-1.510;2024-02-15T15:03:11;3.00;;;0.93;;